Time;durP1;ratioP1;P1;durP2;ratioP2;P2;SDS_P1;SDS_P2;PMS_P1;PMS_P2;Temp;Humidity;BMP_temperature;BMP_pressure;BME280_temperature;BME280_humidity;BME280_pressure;Samples;Min_cycle;Max_cycle;Signal;HPM_P1;HPM_P2
2022/10/19 00:01:45;;;;;;;18.25;8.50;;;;;;;;;;4953217;28;20212;-68
2022/10/19 00:04:11;;;;;;;16.23;8.18;;;;;;;;;;4956788;28;20060;-70
2022/10/19 00:06:38;;;;;;;18.77;8.68;;;;;;;;;;4957079;28;20081;-68
2022/10/19 00:09:08;;;;;;;16.08;8.35;;;;;;;;;;4956739;28;21826;-70
2022/10/19 00:11:35;;;;;;;14.70;8.25;;;;;;;;;;4971403;28;20957;-70
2022/10/19 00:14:01;;;;;;;16.63;8.23;;;;;;;;;;4958615;28;20584;-70
2022/10/19 00:16:28;;;;;;;22.38;8.20;;;;;;;;;;4956395;28;20170;-70
2022/10/19 00:18:56;;;;;;;14.35;7.40;;;;;;;;;;4957366;28;20301;-70
2022/10/19 00:21:22;;;;;;;18.23;8.05;;;;;;;;;;4957386;28;20284;-70
2022/10/19 00:23:47;;;;;;;20.48;8.88;;;;;;;;;;4957981;28;20268;-70
2022/10/19 00:26:13;;;;;;;17.27;10.25;;;;;;;;;;4955067;28;20509;-70
2022/10/19 00:28:38;;;;;;;18.75;9.68;;;;;;;;;;4950146;28;20099;-70
2022/10/19 00:31:04;;;;;;;15.65;8.82;;;;;;;;;;4957657;28;20041;-70
2022/10/19 00:33:30;;;;;;;16.67;7.85;;;;;;;;;;4957442;28;21146;-70
2022/10/19 00:35:56;;;;;;;15.50;7.80;;;;;;;;;;4970159;28;20133;-70
2022/10/19 00:38:24;;;;;;;17.77;7.18;;;;;;;;;;4957313;28;20038;-70
2022/10/19 00:40:49;;;;;;;11.25;6.90;;;;;;;;;;4970054;28;20590;-70
2022/10/19 00:43:18;;;;;;;11.35;6.30;;;;;;;;;;4954575;28;20381;-71
2022/10/19 00:45:43;;;;;;;12.57;6.70;;;;;;;;;;4956216;28;22318;-71
2022/10/19 00:48:11;;;;;;;15.65;6.00;;;;;;;;;;4954756;28;20121;-71
2022/10/19 00:50:36;;;;;;;13.85;6.25;;;;;;;;;;4956102;28;20117;-70
2022/10/19 00:53:02;;;;;;;14.63;6.28;;;;;;;;;;4956565;28;20443;-70
2022/10/19 00:55:27;;;;;;;11.45;5.93;;;;;;;;;;4954433;28;20034;-70
2022/10/19 00:57:58;;;;;;;14.18;6.72;;;;;;;;;;4971225;28;20065;-70
2022/10/19 01:00:23;;;;;;;14.93;6.70;;;;;;;;;;4956847;28;20736;-70
2022/10/19 01:02:49;;;;;;;12.27;5.38;;;;;;;;;;4956801;28;20321;-70
2022/10/19 01:05:14;;;;;;;11.68;5.72;;;;;;;;;;4954104;28;20035;-70
2022/10/19 01:07:40;;;;;;;10.35;5.93;;;;;;;;;;4956315;28;20056;-70
2022/10/19 01:10:08;;;;;;;11.55;6.40;;;;;;;;;;4958185;28;20114;-70
2022/10/19 01:12:33;;;;;;;8.05;5.63;;;;;;;;;;4956599;28;20050;-70
2022/10/19 01:15:08;;;;;;;12.13;5.55;;;;;;;;;;4956209;28;20053;-70
2022/10/19 01:17:52;;;;;;;19.80;6.47;;;;;;;;;;4953791;28;20034;-70
2022/10/19 01:20:31;;;;;;;12.57;6.47;;;;;;;;;;4970768;28;20038;-70
2022/10/19 01:23:15;;;;;;;13.85;6.10;;;;;;;;;;4958439;28;20600;-70
2022/10/19 01:25:48;;;;;;;13.93;6.10;;;;;;;;;;4952334;28;20152;-70
2022/10/19 01:28:32;;;;;;;13.65;6.00;;;;;;;;;;4955571;28;20327;-70
2022/10/19 01:31:15;;;;;;;13.57;5.75;;;;;;;;;;4956574;28;20239;-70
2022/10/19 01:33:41;;;;;;;14.95;6.30;;;;;;;;;;4957326;28;20049;-70
2022/10/19 01:36:27;;;;;;;9.70;5.90;;;;;;;;;;4955914;28;20565;-70
2022/10/19 01:39:09;;;;;;;12.43;5.80;;;;;;;;;;4955338;28;20387;-70
2022/10/19 01:41:44;;;;;;;12.98;6.13;;;;;;;;;;4955688;28;20030;-70
2022/10/19 01:44:20;;;;;;;9.70;6.07;;;;;;;;;;4955884;28;20038;-70
2022/10/19 01:46:54;;;;;;;11.32;5.90;;;;;;;;;;4953344;28;20038;-70
2022/10/19 01:49:23;;;;;;;9.52;5.60;;;;;;;;;;4955816;28;20039;-70
2022/10/19 01:51:51;;;;;;;10.43;5.63;;;;;;;;;;4955509;28;20092;-70
2022/10/19 01:54:18;;;;;;;15.80;4.95;;;;;;;;;;4955945;28;20080;-70
2022/10/19 01:56:45;;;;;;;10.23;5.30;;;;;;;;;;4954977;28;20042;-71
2022/10/19 01:59:11;;;;;;;9.77;5.50;;;;;;;;;;4954589;28;20042;-71
2022/10/19 02:01:39;;;;;;;11.05;4.82;;;;;;;;;;4956660;28;20528;-70
2022/10/19 02:04:05;;;;;;;12.77;4.75;;;;;;;;;;4968234;28;20038;-71
2022/10/19 02:06:31;;;;;;;11.38;5.15;;;;;;;;;;4956178;28;20289;-70
2022/10/19 02:08:59;;;;;;;12.52;4.32;;;;;;;;;;4969165;28;20034;-70
2022/10/19 02:11:24;;;;;;;12.20;5.40;;;;;;;;;;4955153;28;20057;-70
2022/10/19 02:13:55;;;;;;;9.82;4.72;;;;;;;;;;4957332;28;20137;-70
2022/10/19 02:16:26;;;;;;;15.38;5.28;;;;;;;;;;4954925;28;20680;-71
2022/10/19 02:18:52;;;;;;;17.30;5.38;;;;;;;;;;4955469;28;20045;-70
2022/10/19 02:21:18;;;;;;;21.55;5.00;;;;;;;;;;4954006;28;20353;-71
2022/10/19 02:23:44;;;;;;;9.48;4.60;;;;;;;;;;4955459;28;20690;-71
2022/10/19 02:26:09;;;;;;;10.90;4.80;;;;;;;;;;4953930;28;20177;-70
2022/10/19 02:28:35;;;;;;;12.50;4.85;;;;;;;;;;4958369;28;20415;-71
2022/10/19 02:31:00;;;;;;;12.27;5.45;;;;;;;;;;4955360;28;20042;-70
2022/10/19 02:33:27;;;;;;;14.07;5.90;;;;;;;;;;4969459;28;20460;-70
2022/10/19 02:35:52;;;;;;;12.95;6.15;;;;;;;;;;4955342;28;20045;-71
2022/10/19 02:38:19;;;;;;;14.43;5.90;;;;;;;;;;4954849;28;20058;-71
2022/10/19 02:40:50;;;;;;;11.65;5.35;;;;;;;;;;4954792;28;20069;-70
2022/10/19 02:43:18;;;;;;;12.65;5.95;;;;;;;;;;4955204;28;20034;-70
2022/10/19 02:45:55;;;;;;;17.75;5.40;;;;;;;;;;4954510;28;21761;-71
2022/10/19 02:48:23;;;;;;;12.98;5.35;;;;;;;;;;4955020;28;20442;-70
2022/10/19 02:50:48;;;;;;;11.98;5.00;;;;;;;;;;4953436;28;20508;-70
2022/10/19 02:53:14;;;;;;;11.48;5.53;;;;;;;;;;4955083;28;20136;-70
2022/10/19 02:55:41;;;;;;;13.60;5.72;;;;;;;;;;4954888;28;20464;-70
2022/10/19 02:58:06;;;;;;;9.07;5.00;;;;;;;;;;4953966;28;20121;-70
2022/10/19 03:00:31;;;;;;;10.63;5.15;;;;;;;;;;4953239;28;21117;-70
2022/10/19 03:02:57;;;;;;;15.05;5.40;;;;;;;;;;4954383;28;20558;-71
2022/10/19 03:05:22;;;;;;;11.23;5.18;;;;;;;;;;4954699;28;20665;-70
2022/10/19 03:07:48;;;;;;;17.05;5.38;;;;;;;;;;4960341;28;20085;-71
2022/10/19 03:10:16;;;;;;;11.90;4.85;;;;;;;;;;4954674;28;20037;-70
2022/10/19 03:12:43;;;;;;;17.05;6.32;;;;;;;;;;4957666;28;20376;-71
2022/10/19 03:15:09;;;;;;;11.75;5.30;;;;;;;;;;4970125;28;20701;-71
2022/10/19 03:17:37;;;;;;;12.00;5.35;;;;;;;;;;4954733;28;20037;-70
2022/10/19 03:20:08;;;;;;;12.88;5.47;;;;;;;;;;4954355;28;20038;-70
2022/10/19 03:22:34;;;;;;;13.15;4.88;;;;;;;;;;4954134;28;20418;-71
2022/10/19 03:25:02;;;;;;;11.55;5.18;;;;;;;;;;4954613;28;20228;-70
2022/10/19 03:27:27;;;;;;;13.73;7.10;;;;;;;;;;4950934;28;20336;-69
2022/10/19 03:29:52;;;;;;;16.83;9.07;;;;;;;;;;4969043;28;20736;-70
2022/10/19 03:32:18;;;;;;;16.33;9.23;;;;;;;;;;4953134;28;20357;-70
2022/10/19 03:34:43;;;;;;;17.75;9.73;;;;;;;;;;4954388;28;20409;-70
2022/10/19 03:37:09;;;;;;;19.13;8.70;;;;;;;;;;4953538;28;20056;-69
2022/10/19 03:39:34;;;;;;;14.20;7.75;;;;;;;;;;4954083;28;20073;-70
2022/10/19 03:42:00;;;;;;;14.35;7.32;;;;;;;;;;4968195;28;20065;-69
2022/10/19 03:44:25;;;;;;;18.05;7.32;;;;;;;;;;4950899;28;20699;-70
2022/10/19 03:46:51;;;;;;;10.20;5.80;;;;;;;;;;4957775;28;20034;-70
2022/10/19 03:49:16;;;;;;;11.18;5.60;;;;;;;;;;4950899;28;20351;-70
2022/10/19 03:51:42;;;;;;;12.07;5.60;;;;;;;;;;4953479;28;20450;-70
2022/10/19 03:54:12;;;;;;;14.82;5.40;;;;;;;;;;4967552;28;20685;-69
2022/10/19 03:56:38;;;;;;;16.55;5.93;;;;;;;;;;4952549;28;20242;-70
2022/10/19 03:59:04;;;;;;;18.25;6.43;;;;;;;;;;4952780;28;20112;-69
2022/10/19 04:01:31;;;;;;;15.30;5.65;;;;;;;;;;4952655;28;20085;-70
2022/10/19 04:03:58;;;;;;;14.40;5.50;;;;;;;;;;4954139;28;20387;-70
2022/10/19 04:06:34;;;;;;;12.30;5.25;;;;;;;;;;4951363;28;20042;-70
2022/10/19 04:09:00;;;;;;;9.85;5.10;;;;;;;;;;4953344;28;20560;-69
2022/10/19 04:11:27;;;;;;;10.40;5.05;;;;;;;;;;4953114;28;20236;-70
2022/10/19 04:13:53;;;;;;;14.07;5.32;;;;;;;;;;4954713;28;20279;-70
2022/10/19 04:16:21;;;;;;;10.82;4.85;;;;;;;;;;4954123;28;20081;-70
2022/10/19 04:18:47;;;;;;;11.48;5.47;;;;;;;;;;4952117;28;20363;-70
2022/10/19 04:21:23;;;;;;;14.75;5.22;;;;;;;;;;4953025;28;20129;-69
2022/10/19 04:23:50;;;;;;;13.77;4.80;;;;;;;;;;4952862;28;20319;-69
2022/10/19 04:26:16;;;;;;;24.30;5.55;;;;;;;;;;4952451;28;20590;-70
2022/10/19 04:28:41;;;;;;;8.63;4.72;;;;;;;;;;4951606;28;20042;-70
2022/10/19 04:31:07;;;;;;;11.18;5.22;;;;;;;;;;4962023;28;20799;-71
2022/10/19 04:33:33;;;;;;;15.77;5.07;;;;;;;;;;4951858;28;20053;-70
2022/10/19 04:35:59;;;;;;;13.95;5.32;;;;;;;;;;4953249;28;20258;-68
2022/10/19 04:38:25;;;;;;;11.23;5.05;;;;;;;;;;4951160;28;20088;-70
2022/10/19 04:40:50;;;;;;;12.82;5.55;;;;;;;;;;4953347;28;20093;-70
2022/10/19 04:43:15;;;;;;;12.70;5.07;;;;;;;;;;4954255;28;20034;-70
2022/10/19 04:45:41;;;;;;;16.15;5.00;;;;;;;;;;4967198;28;20469;-70
2022/10/19 04:48:06;;;;;;;9.25;4.65;;;;;;;;;;4958239;28;20038;-70
2022/10/19 04:50:31;;;;;;;13.25;4.88;;;;;;;;;;4971196;28;20037;-70
2022/10/19 04:52:57;;;;;;;8.55;4.45;;;;;;;;;;4956798;28;20370;-70
2022/10/19 04:55:22;;;;;;;9.05;4.22;;;;;;;;;;4956304;28;20473;-70
2022/10/19 04:57:47;;;;;;;12.85;5.22;;;;;;;;;;4956493;28;20396;-70
2022/10/19 05:00:15;;;;;;;9.00;4.57;;;;;;;;;;4955546;28;20034;-70
2022/10/19 05:02:44;;;;;;;14.27;5.00;;;;;;;;;;4969704;28;20035;-70
2022/10/19 05:05:09;;;;;;;11.40;4.57;;;;;;;;;;4955630;28;20298;-70
2022/10/19 05:07:37;;;;;;;11.63;5.22;;;;;;;;;;4960606;28;20042;-70
2022/10/19 05:10:02;;;;;;;14.52;5.13;;;;;;;;;;4963783;28;20425;-70
2022/10/19 05:12:28;;;;;;;18.65;5.20;;;;;;;;;;4957284;28;20466;-70
2022/10/19 05:14:53;;;;;;;11.68;5.13;;;;;;;;;;4954708;28;22593;-70
2022/10/19 05:17:18;;;;;;;13.90;5.95;;;;;;;;;;4956622;28;20038;-70
2022/10/19 05:19:44;;;;;;;13.48;5.85;;;;;;;;;;4955397;28;21954;-70
2022/10/19 05:22:10;;;;;;;16.35;5.00;;;;;;;;;;4971449;28;20038;-70
2022/10/19 05:24:35;;;;;;;23.08;5.85;;;;;;;;;;4970301;28;20103;-71
2022/10/19 05:27:01;;;;;;;9.55;5.10;;;;;;;;;;4956213;28;20625;-69
2022/10/19 05:29:27;;;;;;;13.18;5.20;;;;;;;;;;4956697;28;20483;-69
2022/10/19 05:31:54;;;;;;;9.35;4.68;;;;;;;;;;4955179;28;20034;-69
2022/10/19 05:34:20;;;;;;;16.73;5.50;;;;;;;;;;4970776;28;20502;-70
2022/10/19 05:36:46;;;;;;;16.27;5.72;;;;;;;;;;4967711;28;20052;-69
2022/10/19 05:39:13;;;;;;;17.48;5.63;;;;;;;;;;4954282;28;20041;-70
2022/10/19 05:41:38;;;;;;;14.10;6.30;;;;;;;;;;4955756;28;20037;-69
2022/10/19 05:44:04;;;;;;;15.80;6.88;;;;;;;;;;4952653;28;20332;-70
2022/10/19 05:46:31;;;;;;;14.85;6.35;;;;;;;;;;4961166;28;20046;-69
2022/10/19 05:48:56;;;;;;;12.30;5.63;;;;;;;;;;4955116;28;20038;-70
2022/10/19 05:51:23;;;;;;;16.45;6.32;;;;;;;;;;4958151;28;20838;-69
2022/10/19 05:53:48;;;;;;;13.38;6.07;;;;;;;;;;4956827;28;20061;-69
2022/10/19 05:56:15;;;;;;;14.55;6.55;;;;;;;;;;4958750;28;20152;-70
2022/10/19 05:58:41;;;;;;;13.30;6.55;;;;;;;;;;4958779;28;20153;-69
2022/10/19 06:01:08;;;;;;;19.05;7.78;;;;;;;;;;4957759;28;20952;-69
2022/10/19 06:03:34;;;;;;;14.75;7.63;;;;;;;;;;4958855;28;20042;-69
2022/10/19 06:06:01;;;;;;;11.65;6.60;;;;;;;;;;4958195;28;20076;-69
2022/10/19 06:08:27;;;;;;;12.50;6.60;;;;;;;;;;4954082;28;20081;-69
2022/10/19 06:10:52;;;;;;;20.25;7.78;;;;;;;;;;4958805;28;20038;-70
2022/10/19 06:13:18;;;;;;;12.88;7.40;;;;;;;;;;4957428;28;20048;-69
2022/10/19 06:15:44;;;;;;;18.40;7.95;;;;;;;;;;4958104;28;20046;-69
2022/10/19 06:18:10;;;;;;;18.67;7.95;;;;;;;;;;4971487;28;20053;-69
2022/10/19 06:20:36;;;;;;;20.40;7.88;;;;;;;;;;4958392;28;20872;-69
2022/10/19 06:23:04;;;;;;;14.63;7.70;;;;;;;;;;4957492;28;20039;-69
2022/10/19 06:25:32;;;;;;;15.73;7.93;;;;;;;;;;4957952;28;20050;-69
2022/10/19 06:27:58;;;;;;;20.25;9.85;;;;;;;;;;4972148;28;20157;-69
2022/10/19 06:30:28;;;;;;;14.65;8.45;;;;;;;;;;4957492;28;20045;-69
2022/10/19 06:32:53;;;;;;;19.70;9.80;;;;;;;;;;4956802;28;20069;-69
2022/10/19 06:35:21;;;;;;;20.38;9.98;;;;;;;;;;4958023;28;20042;-71
2022/10/19 06:37:46;;;;;;;23.23;10.38;;;;;;;;;;4957756;28;20037;-70
2022/10/19 06:40:12;;;;;;;16.13;9.73;;;;;;;;;;4955392;28;20042;-70
2022/10/19 06:42:38;;;;;;;23.38;10.13;;;;;;;;;;4958565;28;20034;-70
2022/10/19 06:45:06;;;;;;;20.45;9.73;;;;;;;;;;4955386;28;20037;-69
2022/10/19 06:47:33;;;;;;;20.73;10.35;;;;;;;;;;4958397;28;20778;-70
2022/10/19 06:49:58;;;;;;;20.35;9.88;;;;;;;;;;4956460;28;20042;-70
2022/10/19 06:52:24;;;;;;;19.55;8.48;;;;;;;;;;4971566;28;20034;-71
2022/10/19 06:54:52;;;;;;;19.02;8.82;;;;;;;;;;4953522;28;20030;-70
2022/10/19 06:57:17;;;;;;;15.63;8.20;;;;;;;;;;4956976;28;20041;-70
2022/10/19 06:59:43;;;;;;;16.65;7.28;;;;;;;;;;4954422;28;20038;-70
2022/10/19 07:02:11;;;;;;;14.00;6.68;;;;;;;;;;4958999;28;20034;-70
2022/10/19 07:04:37;;;;;;;12.80;6.82;;;;;;;;;;4957203;28;20023;-69
2022/10/19 07:07:03;;;;;;;15.77;7.75;;;;;;;;;;4954599;28;20065;-70
2022/10/19 07:09:31;;;;;;;14.07;8.00;;;;;;;;;;4954670;28;20034;-70
2022/10/19 07:11:56;;;;;;;15.70;7.97;;;;;;;;;;4953253;28;20655;-70
2022/10/19 07:14:27;;;;;;;15.50;7.30;;;;;;;;;;4951800;28;20609;-70
2022/10/19 07:16:53;;;;;;;15.40;6.40;;;;;;;;;;4951083;28;20299;-70
2022/10/19 07:19:18;;;;;;;11.95;6.68;;;;;;;;;;4952698;28;20042;-70
2022/10/19 07:21:44;;;;;;;18.58;9.20;;;;;;;;;;4949860;28;20547;-69
2022/10/19 07:24:09;;;;;;;18.63;10.52;;;;;;;;;;4949678;28;22852;-70
2022/10/19 07:26:35;;;;;;;25.40;14.90;;;;;;;;;;4952367;28;20053;-70
2022/10/19 07:29:04;;;;;;;27.33;18.70;;;;;;;;;;4946957;28;20055;-70
2022/10/19 07:31:30;;;;;;;30.63;21.50;;;;;;;;;;4963677;28;20454;-70
2022/10/19 07:33:57;;;;;;;34.17;21.92;;;;;;;;;;4942979;28;20335;-70
2022/10/19 07:36:22;;;;;;;33.05;20.15;;;;;;;;;;4956037;28;20634;-70
2022/10/19 07:38:48;;;;;;;31.58;20.90;;;;;;;;;;4950729;28;20106;-70
2022/10/19 07:41:15;;;;;;;33.97;21.65;;;;;;;;;;4953360;28;20165;-69
2022/10/19 07:43:41;;;;;;;33.10;21.77;;;;;;;;;;4954217;28;20774;-70
2022/10/19 07:46:08;;;;;;;34.47;22.95;;;;;;;;;;4955359;28;20832;-72
2022/10/19 07:48:35;;;;;;;31.77;23.23;;;;;;;;;;4956894;28;20037;-69
2022/10/19 07:51:01;;;;;;;34.05;24.70;;;;;;;;;;4956398;28;20038;-71
2022/10/19 07:53:26;;;;;;;25.85;17.92;;;;;;;;;;4954379;28;20046;-72
2022/10/19 07:55:51;;;;;;;24.60;14.55;;;;;;;;;;4957954;28;20065;-72
2022/10/19 07:58:18;;;;;;;18.10;10.02;;;;;;;;;;4954685;28;20049;-71
2022/10/19 08:00:44;;;;;;;14.00;4.55;;;;;;;;;;4957174;28;20113;-71
2022/10/19 08:03:11;;;;;;;17.60;4.85;;;;;;;;;;4958098;28;21241;-72
2022/10/19 08:05:36;;;;;;;14.68;2.85;;;;;;;;;;4956393;28;20033;-74
2022/10/19 08:08:02;;;;;;;12.80;3.63;;;;;;;;;;4951186;28;20069;-71
2022/10/19 08:10:30;;;;;;;12.07;2.65;;;;;;;;;;4954137;28;20782;-71
2022/10/19 08:12:55;;;;;;;11.10;2.40;;;;;;;;;;4971907;28;20073;-72
2022/10/19 08:15:21;;;;;;;10.63;2.60;;;;;;;;;;4957527;28;20030;-72
2022/10/19 08:17:46;;;;;;;12.88;2.20;;;;;;;;;;4956621;28;20066;-73
2022/10/19 08:20:14;;;;;;;9.80;2.65;;;;;;;;;;4971342;28;20030;-73
2022/10/19 08:22:40;;;;;;;15.18;2.58;;;;;;;;;;4957608;28;20048;-73
2022/10/19 08:25:06;;;;;;;7.05;2.05;;;;;;;;;;4961414;28;21481;-73
2022/10/19 08:27:33;;;;;;;14.57;1.92;;;;;;;;;;4960989;28;20038;-71
2022/10/19 08:30:00;;;;;;;9.23;2.38;;;;;;;;;;4960468;28;20038;-71
2022/10/19 08:32:26;;;;;;;12.13;2.25;;;;;;;;;;4942207;28;20053;-72
2022/10/19 08:34:51;;;;;;;6.28;1.83;;;;;;;;;;4961409;28;20835;-71
2022/10/19 08:37:17;;;;;;;9.27;1.83;;;;;;;;;;4960328;28;20077;-71
2022/10/19 08:39:42;;;;;;;9.95;2.22;;;;;;;;;;4961711;28;20038;-71
2022/10/19 08:42:13;;;;;;;7.10;2.00;;;;;;;;;;4973720;28;20030;-72
2022/10/19 08:44:51;;;;;;;8.38;2.20;;;;;;;;;;4959681;28;20109;-72
2022/10/19 08:47:22;;;;;;;15.50;2.85;;;;;;;;;;4959961;28;20131;-71
2022/10/19 08:49:47;;;;;;;9.50;1.77;;;;;;;;;;4959903;28;20033;-69
2022/10/19 08:52:16;;;;;;;11.25;2.40;;;;;;;;;;4960504;28;20156;-71
2022/10/19 08:54:45;;;;;;;8.10;1.85;;;;;;;;;;4972295;28;20092;-72
2022/10/19 08:57:12;;;;;;;8.43;1.98;;;;;;;;;;4959748;28;20112;-70
2022/10/19 08:59:46;;;;;;;8.95;1.92;;;;;;;;;;4959222;28;20125;-73
2022/10/19 09:02:11;;;;;;;7.60;1.42;;;;;;;;;;4959126;28;20486;-73
2022/10/19 09:04:39;;;;;;;9.25;1.80;;;;;;;;;;4956035;28;20073;-73
2022/10/19 09:07:23;;;;;;;7.00;1.83;;;;;;;;;;4957968;28;20097;-74
2022/10/19 09:10:03;;;;;;;10.98;2.05;;;;;;;;;;4957547;28;20135;-72
2022/10/19 09:12:50;;;;;;;8.82;1.75;;;;;;;;;;4958220;28;20039;-71
2022/10/19 09:15:17;;;;;;;5.88;1.60;;;;;;;;;;4958376;28;20057;-71
2022/10/19 09:17:46;;;;;;;8.15;1.30;;;;;;;;;;4957594;28;20034;-71
2022/10/19 09:20:16;;;;;;;9.07;1.48;;;;;;;;;;4958474;28;20479;-71
2022/10/19 09:22:43;;;;;;;12.35;1.70;;;;;;;;;;4960725;28;20030;-69
2022/10/19 09:25:18;;;;;;;11.10;1.92;;;;;;;;;;4957419;28;20051;-70
2022/10/19 09:27:46;;;;;;;5.88;1.23;;;;;;;;;;4957601;28;20528;-71
2022/10/19 09:30:16;;;;;;;12.68;1.88;;;;;;;;;;4957932;28;20713;-70
2022/10/19 09:32:42;;;;;;;7.35;1.48;;;;;;;;;;4957457;28;20034;-72
2022/10/19 09:35:13;;;;;;;8.18;1.63;;;;;;;;;;4957790;28;20041;-71
2022/10/19 09:37:41;;;;;;;9.27;1.65;;;;;;;;;;4958021;28;20041;-71
2022/10/19 09:40:13;;;;;;;5.72;1.20;;;;;;;;;;4959537;28;20976;-69
2022/10/19 09:42:38;;;;;;;9.23;1.50;;;;;;;;;;4959479;28;20034;-72
2022/10/19 09:45:18;;;;;;;11.82;1.55;;;;;;;;;;4957745;28;20069;-70
2022/10/19 09:47:47;;;;;;;5.05;1.08;;;;;;;;;;4960565;28;20828;-69
2022/10/19 09:50:12;;;;;;;6.35;1.10;;;;;;;;;;4959326;28;20038;-71
2022/10/19 09:52:38;;;;;;;9.05;1.55;;;;;;;;;;4975333;28;20101;-72
2022/10/19 09:55:18;;;;;;;8.68;1.13;;;;;;;;;;4958999;28;20045;-69
2022/10/19 09:57:57;;;;;;;7.00;1.27;;;;;;;;;;4958289;28;20046;-71
2022/10/19 10:00:29;;;;;;;8.50;1.25;;;;;;;;;;4956400;28;21182;-73
2022/10/19 10:02:55;;;;;;;8.63;1.63;;;;;;;;;;4958751;28;20034;-70
2022/10/19 10:05:37;;;;;;;7.00;1.52;;;;;;;;;;4959175;28;20089;-71
2022/10/19 10:08:04;;;;;;;8.45;1.38;;;;;;;;;;4950614;28;20145;-69
2022/10/19 10:10:35;;;;;;;6.70;1.42;;;;;;;;;;4959870;28;20030;-71
2022/10/19 10:13:01;;;;;;;8.85;1.45;;;;;;;;;;4956995;28;20057;-71
2022/10/19 10:15:29;;;;;;;10.98;1.25;;;;;;;;;;4957554;28;20046;-71
2022/10/19 10:17:55;;;;;;;7.88;1.30;;;;;;;;;;4956651;28;22059;-72
2022/10/19 10:20:22;;;;;;;10.30;1.48;;;;;;;;;;4939090;28;20034;-72
2022/10/19 10:22:51;;;;;;;8.85;1.23;;;;;;;;;;4955781;28;20045;-71
2022/10/19 10:25:17;;;;;;;4.57;1.08;;;;;;;;;;4958028;28;22407;-72
2022/10/19 10:27:55;;;;;;;9.40;1.35;;;;;;;;;;4959866;28;20112;-70
2022/10/19 10:30:21;;;;;;;8.05;1.27;;;;;;;;;;4959327;28;20193;-72
2022/10/19 10:32:51;;;;;;;7.32;1.23;;;;;;;;;;4958456;28;20030;-73
2022/10/19 10:35:23;;;;;;;7.53;1.33;;;;;;;;;;4956988;28;20113;-71
2022/10/19 10:37:48;;;;;;;;;;;;;;;;;;4957114;28;20067;-72
2022/10/19 10:40:34;;;;;;;7.70;1.27;;;;;;;;;;4960947;28;21097;-71
2022/10/19 10:43:08;;;;;;;8.15;1.05;;;;;;;;;;4958317;28;21175;-70
2022/10/19 10:45:39;;;;;;;5.57;1.27;;;;;;;;;;4958212;28;20038;-71
2022/10/19 10:48:13;;;;;;;7.30;0.98;;;;;;;;;;4961204;28;20042;-72
2022/10/19 10:50:38;;;;;;;9.73;1.30;;;;;;;;;;4955020;28;20098;-69
2022/10/19 10:53:05;;;;;;;12.13;1.80;;;;;;;;;;4959108;28;20958;-71
2022/10/19 10:55:31;;;;;;;6.38;1.65;;;;;;;;;;4958470;28;20041;-70
2022/10/19 10:58:10;;;;;;;4.53;1.02;;;;;;;;;;4961249;28;20105;-71
2022/10/19 11:00:39;;;;;;;7.10;1.27;;;;;;;;;;4958064;28;20049;-71
2022/10/19 11:03:11;;;;;;;6.28;1.20;;;;;;;;;;4958752;28;20042;-72
2022/10/19 11:05:39;;;;;;;5.97;1.10;;;;;;;;;;4958377;28;20038;-72
2022/10/19 11:08:17;;;;;;;5.97;1.02;;;;;;;;;;4954295;28;20038;-73
2022/10/19 11:10:48;;;;;;;3.72;0.90;;;;;;;;;;4969215;28;20880;-72
2022/10/19 11:13:15;;;;;;;6.03;1.20;;;;;;;;;;4954349;28;20034;-71
2022/10/19 11:15:50;;;;;;;8.15;1.30;;;;;;;;;;4954359;28;20038;-72
2022/10/19 11:18:19;;;;;;;10.45;1.30;;;;;;;;;;4953439;28;20034;-73
2022/10/19 11:20:54;;;;;;;8.45;1.35;;;;;;;;;;4956618;28;20111;-71
2022/10/19 11:23:27;;;;;;;8.30;1.30;;;;;;;;;;4945144;28;20038;-71
2022/10/19 11:26:02;;;;;;;5.78;1.20;;;;;;;;;;4955440;28;20944;-72
2022/10/19 11:28:33;;;;;;;5.45;1.08;;;;;;;;;;4954166;28;20042;-72
2022/10/19 11:31:01;;;;;;;6.00;1.30;;;;;;;;;;4955816;28;20254;-73
2022/10/19 11:33:36;;;;;;;8.68;1.30;;;;;;;;;;4957772;28;20644;-70
2022/10/19 11:36:04;;;;;;;8.25;1.70;;;;;;;;;;4956161;28;20037;-72
2022/10/19 11:38:56;;;;;;;8.65;1.45;;;;;;;;;;4957535;28;20061;-73
2022/10/19 11:41:28;;;;;;;7.47;1.30;;;;;;;;;;4957623;28;20042;-72
2022/10/19 11:43:53;;;;;;;6.25;1.15;;;;;;;;;;4957680;28;20038;-72
2022/10/19 11:46:24;;;;;;;6.07;1.25;;;;;;;;;;4955643;28;20089;-72
2022/10/19 11:49:08;;;;;;;5.47;1.40;;;;;;;;;;4959402;28;20053;-73
2022/10/19 11:51:34;;;;;;;10.10;1.65;;;;;;;;;;4971187;28;20031;-72
2022/10/19 11:54:14;;;;;;;4.60;1.00;;;;;;;;;;4957440;28;20041;-72
2022/10/19 11:56:45;;;;;;;5.10;1.00;;;;;;;;;;4956844;28;20042;-69
2022/10/19 11:59:16;;;;;;;6.15;1.30;;;;;;;;;;4960561;28;20922;-71
2022/10/19 12:02:03;;;;;;;5.13;1.15;;;;;;;;;;4960348;28;20037;-71
2022/10/19 12:04:55;;;;;;;9.30;1.10;;;;;;;;;;4961588;28;20065;-69
2022/10/19 12:07:29;;;;;;;7.80;1.35;;;;;;;;;;4954343;28;20034;-71
2022/10/19 12:10:03;;;;;;;9.80;1.70;;;;;;;;;;4960356;28;20038;-72
2022/10/19 12:12:32;;;;;;;7.97;1.40;;;;;;;;;;4961235;28;20108;-71
2022/10/19 12:15:14;;;;;;;5.00;1.35;;;;;;;;;;4960833;28;21056;-71
2022/10/19 12:17:41;;;;;;;7.15;1.30;;;;;;;;;;4961024;28;20045;-72
2022/10/19 12:20:14;;;;;;;9.05;1.30;;;;;;;;;;4961131;28;20037;-71
2022/10/19 12:22:39;;;;;;;8.32;1.50;;;;;;;;;;4961946;28;20038;-72
2022/10/19 12:25:05;;;;;;;7.80;1.50;;;;;;;;;;4960502;28;20115;-69
2022/10/19 12:27:34;;;;;;;4.35;1.20;;;;;;;;;;4960856;28;20027;-71
2022/10/19 12:30:06;;;;;;;11.50;1.85;;;;;;;;;;4960975;28;20107;-70
2022/10/19 12:32:36;;;;;;;7.43;1.58;;;;;;;;;;4960161;28;20034;-72
2022/10/19 12:35:18;;;;;;;9.32;1.70;;;;;;;;;;4958122;28;20932;-70
2022/10/19 12:37:47;;;;;;;8.73;2.00;;;;;;;;;;4960845;28;22263;-70
2022/10/19 12:40:23;;;;;;;8.75;1.70;;;;;;;;;;4958514;28;20061;-71
2022/10/19 12:42:50;;;;;;;10.50;2.25;;;;;;;;;;4957827;28;20077;-71
2022/10/19 12:45:29;;;;;;;6.50;1.75;;;;;;;;;;4973166;28;20058;-70
2022/10/19 12:48:06;;;;;;;8.65;1.58;;;;;;;;;;4957682;28;20668;-70
2022/10/19 12:50:56;;;;;;;10.52;1.98;;;;;;;;;;4958570;28;20030;-68
2022/10/19 12:53:25;;;;;;;11.18;2.40;;;;;;;;;;4949048;28;20815;-70
2022/10/19 12:56:01;;;;;;;8.55;1.80;;;;;;;;;;4956179;28;20037;-71
2022/10/19 12:58:28;;;;;;;8.48;2.38;;;;;;;;;;4954572;28;20038;-70
2022/10/19 13:01:04;;;;;;;9.27;2.83;;;;;;;;;;4956354;28;20051;-69
2022/10/19 13:03:31;;;;;;;8.95;2.03;;;;;;;;;;4956976;28;20769;-71
2022/10/19 13:05:58;;;;;;;9.55;2.17;;;;;;;;;;4955651;28;20299;-71
2022/10/19 13:08:33;;;;;;;11.90;2.38;;;;;;;;;;4954856;28;20096;-70
2022/10/19 13:11:03;;;;;;;8.88;2.05;;;;;;;;;;4955611;28;20042;-69
2022/10/19 13:13:50;;;;;;;7.82;2.35;;;;;;;;;;4958561;28;20464;-70
2022/10/19 13:16:28;;;;;;;8.52;2.10;;;;;;;;;;4953878;28;20187;-71
2022/10/19 13:18:58;;;;;;;9.95;1.88;;;;;;;;;;4956754;28;20028;-70
2022/10/19 13:21:44;;;;;;;8.43;2.17;;;;;;;;;;4955430;28;20771;-70
2022/10/19 13:24:24;;;;;;;9.48;1.83;;;;;;;;;;4961042;28;20041;-69
2022/10/19 13:27:02;;;;;;;8.38;2.20;;;;;;;;;;4951753;28;20293;-69
2022/10/19 13:29:38;;;;;;;7.57;1.80;;;;;;;;;;4957043;28;20506;-70
2022/10/19 13:32:29;;;;;;;7.85;2.17;;;;;;;;;;4956981;28;20050;-70
2022/10/19 13:35:16;;;;;;;8.05;2.20;;;;;;;;;;4929924;28;20272;-70
2022/10/19 13:37:42;;;;;;;9.68;2.22;;;;;;;;;;4969655;28;20026;-68
2022/10/19 13:40:20;;;;;;;8.05;1.80;;;;;;;;;;4956182;28;20053;-70
2022/10/19 13:42:45;;;;;;;9.73;2.10;;;;;;;;;;4955534;28;20030;-69
2022/10/19 13:45:21;;;;;;;9.38;2.17;;;;;;;;;;4955778;28;20127;-69
2022/10/19 13:47:51;;;;;;;8.80;2.40;;;;;;;;;;4956490;28;20077;-70
2022/10/19 13:50:37;;;;;;;10.65;2.22;;;;;;;;;;4956093;28;20134;-71
2022/10/19 13:53:18;;;;;;;9.80;2.03;;;;;;;;;;4953670;28;20437;-70
2022/10/19 13:55:44;;;;;;;9.48;2.30;;;;;;;;;;4946945;28;20030;-70
2022/10/19 13:58:19;;;;;;;12.90;2.97;;;;;;;;;;4957666;28;20600;-72
2022/10/19 14:00:45;;;;;;;8.68;2.15;;;;;;;;;;4972378;28;20033;-69
2022/10/19 14:03:28;;;;;;;10.13;1.85;;;;;;;;;;4959179;28;20100;-71
2022/10/19 14:06:12;;;;;;;7.87;2.10;;;;;;;;;;4958877;28;20026;-70
2022/10/19 14:08:44;;;;;;;13.02;2.20;;;;;;;;;;4958332;28;20034;-71
2022/10/19 14:11:18;;;;;;;10.90;2.03;;;;;;;;;;4958223;28;20062;-70
2022/10/19 14:13:43;;;;;;;11.27;2.33;;;;;;;;;;4957913;28;20057;-70
2022/10/19 14:16:20;;;;;;;10.82;1.80;;;;;;;;;;4959451;28;20038;-71
2022/10/19 14:18:52;;;;;;;9.95;2.00;;;;;;;;;;4957964;28;20061;-70
2022/10/19 14:21:27;;;;;;;11.38;2.22;;;;;;;;;;4956753;28;20038;-70
2022/10/19 14:23:55;;;;;;;8.52;1.80;;;;;;;;;;4958930;28;20089;-72
2022/10/19 14:26:21;;;;;;;7.80;1.73;;;;;;;;;;4972216;28;20030;-71
2022/10/19 14:28:51;;;;;;;11.52;2.13;;;;;;;;;;4959866;28;20699;-71
2022/10/19 14:31:18;;;;;;;8.35;1.83;;;;;;;;;;4957136;28;20041;-71
2022/10/19 14:33:45;;;;;;;9.70;2.42;;;;;;;;;;4957307;28;20051;-70
2022/10/19 14:36:17;;;;;;;10.23;2.45;;;;;;;;;;4958196;28;20037;-71
2022/10/19 14:38:43;;;;;;;8.55;2.00;;;;;;;;;;4957248;28;20057;-70
2022/10/19 14:41:19;;;;;;;9.95;2.35;;;;;;;;;;4957485;28;20119;-70
2022/10/19 14:43:52;;;;;;;12.32;2.33;;;;;;;;;;5050792;27;20385;-70
2022/10/19 14:46:20;;;;;;;10.13;2.08;;;;;;;;;;5034923;28;20037;-69